CheckWX is a tool to help pilots better visualize weather data.  It is not intended as a substitute for an official pre-flight weather briefing.

13:13:12 UTC

HELX TAF
Luxor International Airport
Luxor, Egypt
TAF HELX 181100Z 1812/1918 32008G18KT CAVOK

Aug-18@
12:00 UTC

Aug-18 @ 12:00 UTC

Aug-19@
18:00 UTC

Aug-19 @ 18:00 UTC

TAF HELX 181100Z 1812/1918 32008G18KT CAVOK
Wind
  • 320° at 8 KTS
  • {Gusting to 18 KTS
Conditions
No significant weather
Cloud Levels
  • No significant clouds